Terminal Aerodrome Forecast
Issued by NWS

Home | Current Version | Previous Version | Text Only | Print | Product List | Glossary On
Versions: 1 2 3 4 5 6 7 8 9 10 11 12
000
FTUS42 KTBW 211745
TAFRSW
TAF
KRSW 211745Z 2118/2218 07008KT P6SM BKN035
     FM220100 08005KT P6SM SCT040
     FM220900 09004KT 6SM BR SCT010
     FM221400 13010KT P6SM SCT025 SCT250=

USA.gov is the U.S. government's official web portal to all federal, state and local government web resources and services.